Lester, Pennsylvania
Current Conditions -  °F | °C
As of 6:54 PM on Monday 24 Nov 2014 (Local Time) from KPHL Reporting Station
Clear Clear  
Wind Chill: 63°   Ceiling: Unl
Heat Index: 63°   Visibility: 10mi
Dew Point: 54°   Wind: 9mph
Humidity: 72%   Direction: 190°S
Pressure: 29.7"   Gusts: NA
Location:  39.867°N, 75.284°W
Report Text: KPHL 242354Z 19008KT 10SM CLR 17/12 A2970 RMK AO2 SLP056 T01720122 10222 20172 51019
Loading
Personal Weather Stations






























Interactive Weather Map New forecast layout! Learn more

10-Day Weather Forecast

Advertisements
Track Severe Weather on mobile